Time;durP1;ratioP1;P1;durP2;ratioP2;P2;SDS_P1;SDS_P2;PMS_P1;PMS_P2;Temp;Humidity;BMP_temperature;BMP_pressure;BME280_temperature;BME280_humidity;BME280_pressure;Samples;Min_cycle;Max_cycle;Signal;HPM_P1;HPM_P2
2024/01/07 00:01:34;;;;;;;4.22;3.22;;;;;;;19.50;41.05;102000.53;5040806;28;20037;-69
2024/01/07 00:03:59;;;;;;;3.70;2.72;;;;;;;19.42;41.25;102003.94;5042839;28;20045;-69
2024/01/07 00:06:25;;;;;;;2.92;2.58;;;;;;;19.47;41.27;102017.53;5039191;28;20041;-68
2024/01/07 00:08:50;;;;;;;4.10;2.78;;;;;;;19.42;41.37;102016.31;5039856;28;20433;-68
2024/01/07 00:11:16;;;;;;;3.88;2.90;;;;;;;19.36;41.24;102007.16;5039424;28;20060;-69
2024/01/07 00:13:41;;;;;;;3.38;2.60;;;;;;;19.38;41.40;102025.50;5042980;28;20153;-69
2024/01/07 00:16:07;;;;;;;3.17;2.40;;;;;;;19.33;41.44;102018.03;5038462;28;20041;-69
2024/01/07 00:18:32;;;;;;;4.22;2.60;;;;;;;19.33;41.42;102025.94;5043635;28;20427;-69
2024/01/07 00:20:58;;;;;;;3.45;2.47;;;;;;;19.25;41.56;102031.97;5040838;28;20033;-69
2024/01/07 00:23:24;;;;;;;3.75;2.90;;;;;;;19.26;41.58;102032.81;5041273;28;20040;-68
2024/01/07 00:25:49;;;;;;;3.42;2.63;;;;;;;19.20;41.69;102025.44;5038591;28;20052;-69
2024/01/07 00:28:15;;;;;;;3.70;2.47;;;;;;;19.22;41.61;102036.72;5043420;28;20036;-68
2024/01/07 00:30:40;;;;;;;3.80;2.60;;;;;;;19.06;41.59;102016.22;5038685;28;20048;-69
2024/01/07 00:33:06;;;;;;;4.18;2.70;;;;;;;19.13;41.63;102033.13;5021223;28;20094;-68
2024/01/07 00:35:31;;;;;;;2.47;2.25;;;;;;;19.17;41.63;102036.31;5040941;28;20033;-68
2024/01/07 00:37:57;;;;;;;3.83;2.65;;;;;;;19.13;41.74;102041.06;5037382;28;20099;-69
2024/01/07 00:40:23;;;;;;;3.40;2.42;;;;;;;19.09;41.78;102041.50;5021507;28;20695;-69
2024/01/07 00:42:49;;;;;;;6.05;2.42;;;;;;;19.02;41.92;102043.88;5045040;28;20343;-68
2024/01/07 00:45:14;;;;;;;3.83;2.63;;;;;;;19.06;41.80;102055.81;5020924;28;20071;-69
2024/01/07 00:47:41;;;;;;;3.53;2.60;;;;;;;18.89;41.95;102035.47;5023170;28;20831;-69
2024/01/07 00:50:07;;;;;;;2.95;2.40;;;;;;;18.99;41.91;102058.19;5024763;28;20158;-69
2024/01/07 00:52:32;;;;;;;3.42;2.33;;;;;;;18.96;41.98;102057.66;5042130;28;20041;-69
2024/01/07 00:54:58;;;;;;;3.63;2.65;;;;;;;18.93;41.91;102055.31;5047074;28;20041;-68
2024/01/07 00:57:23;;;;;;;3.17;2.47;;;;;;;18.93;41.90;102052.66;5042511;28;20045;-69
2024/01/07 00:59:50;;;;;;;2.85;2.50;;;;;;;18.90;41.93;102063.53;5042671;28;20460;-69
2024/01/07 01:02:16;;;;;;;3.15;2.50;;;;;;;18.86;42.06;102065.63;5044681;28;20044;-69
2024/01/07 01:04:42;;;;;;;3.40;2.47;;;;;;;18.86;42.06;102070.06;5043304;28;20603;-69
2024/01/07 01:07:07;;;;;;;4.53;2.65;;;;;;;18.81;42.13;102073.13;5028188;28;20540;-69
2024/01/07 01:09:33;;;;;;;3.05;2.10;;;;;;;18.78;42.25;102067.28;5040572;28;20056;-69
2024/01/07 01:11:59;;;;;;;3.42;2.60;;;;;;;18.81;42.22;102082.84;5032885;28;20114;-69
2024/01/07 01:14:25;;;;;;;3.60;2.35;;;;;;;18.75;42.08;102075.50;5040756;28;20037;-69
2024/01/07 01:16:50;;;;;;;2.53;2.20;;;;;;;18.54;42.17;102046.63;5040795;28;20060;-69
2024/01/07 01:19:17;;;;;;;3.83;2.50;;;;;;;18.67;42.25;102077.06;5027629;28;20084;-69
2024/01/07 01:21:43;;;;;;;2.33;2.00;;;;;;;18.69;42.26;102079.56;5021911;28;20553;-69
2024/01/07 01:24:08;;;;;;;3.08;2.42;;;;;;;18.62;42.33;102076.59;5041038;28;20040;-68
2024/01/07 01:26:34;;;;;;;2.45;1.95;;;;;;;18.65;42.27;102091.34;5041281;28;20052;-68
2024/01/07 01:29:00;;;;;;;2.67;2.38;;;;;;;18.62;42.35;102087.16;5025961;28;20037;-68
2024/01/07 01:31:25;;;;;;;2.85;2.22;;;;;;;18.57;42.41;102080.63;5029042;28;20485;-68
2024/01/07 01:33:51;;;;;;;2.40;2.20;;;;;;;18.61;42.35;102092.56;5029923;28;20052;-68
2024/01/07 01:36:16;;;;;;;3.10;2.28;;;;;;;18.61;42.25;102098.69;5042935;28;20054;-68
2024/01/07 01:38:42;;;;;;;2.15;1.80;;;;;;;18.58;42.26;102101.59;5041433;28;20119;-67
2024/01/07 01:41:07;;;;;;;3.03;2.17;;;;;;;18.54;42.42;102105.50;5045319;28;20785;-67
2024/01/07 01:43:33;;;;;;;2.13;1.90;;;;;;;18.50;42.41;102104.13;5044196;28;20056;-68
2024/01/07 01:45:59;;;;;;;3.70;2.42;;;;;;;18.51;42.46;102118.97;5045786;28;20033;-67
2024/01/07 01:48:26;;;;;;;2.92;2.33;;;;;;;18.50;42.37;102112.03;5025028;28;20381;-67
2024/01/07 01:50:54;;;;;;;4.13;2.33;;;;;;;18.46;42.33;102109.78;5023795;28;20501;-68
2024/01/07 01:53:19;;;;;;;4.07;2.45;;;;;;;18.41;42.41;102107.56;5028215;28;20051;-68
2024/01/07 01:55:45;;;;;;;2.58;2.10;;;;;;;18.40;42.44;102117.28;5043388;28;20450;-68
2024/01/07 01:58:13;;;;;;;2.85;2.20;;;;;;;18.43;42.40;102116.19;5021737;28;20099;-68
2024/01/07 02:00:39;;;;;;;3.05;2.10;;;;;;;18.30;42.57;102110.34;5007884;28;20726;-68
2024/01/07 02:03:05;;;;;;;2.83;2.20;;;;;;;18.40;42.77;102127.00;5026020;28;20041;-68
2024/01/07 02:05:31;;;;;;;2.30;2.10;;;;;;;18.31;42.51;102123.41;5025538;28;20048;-69
2024/01/07 02:07:57;;;;;;;2.33;2.03;;;;;;;18.27;42.45;102122.00;5044973;28;20037;-69
2024/01/07 02:10:23;;;;;;;2.95;2.38;;;;;;;18.35;42.57;102137.16;5043033;28;20815;-68
2024/01/07 02:12:49;;;;;;;3.20;2.10;;;;;;;18.36;42.68;102149.38;5025040;28;20044;-68
2024/01/07 02:15:15;;;;;;;2.13;1.92;;;;;;;18.33;42.73;102142.56;5024134;28;20863;-68
2024/01/07 02:17:41;;;;;;;2.22;1.88;;;;;;;18.32;42.58;102146.19;5039099;28;20173;-68
2024/01/07 02:20:07;;;;;;;2.30;2.10;;;;;;;18.31;42.62;102149.78;5028382;28;20033;-68
2024/01/07 02:22:32;;;;;;;3.42;2.45;;;;;;;18.30;42.62;102155.16;5047347;28;20418;-68
2024/01/07 02:25:01;;;;;;;5.03;2.70;;;;;;;18.29;42.82;102156.97;5025905;28;20059;-68
2024/01/07 02:27:27;;;;;;;4.00;2.33;;;;;;;18.30;42.54;102156.00;5025959;28;20036;-68
2024/01/07 02:29:52;;;;;;;2.85;2.10;;;;;;;18.28;42.75;102157.13;5025208;28;20036;-68
2024/01/07 02:32:18;;;;;;;3.30;2.47;;;;;;;18.26;42.75;102159.91;5024692;28;20119;-68
2024/01/07 02:34:44;;;;;;;3.22;2.13;;;;;;;18.16;42.67;102147.69;5042686;28;20044;-68
2024/01/07 02:37:09;;;;;;;2.88;2.10;;;;;;;18.27;42.70;102161.56;5035831;28;20040;-68
2024/01/07 02:39:35;;;;;;;3.40;2.30;;;;;;;18.27;42.53;102160.72;5042369;28;20037;-69
2024/01/07 02:42:00;;;;;;;2.80;1.77;;;;;;;18.30;42.62;102171.00;5024598;28;20119;-69
2024/01/07 02:44:26;;;;;;;2.85;2.03;;;;;;;18.28;42.60;102168.50;5043296;28;20036;-68
2024/01/07 02:46:51;;;;;;;2.92;2.05;;;;;;;18.25;42.63;102160.88;5039714;28;20053;-68
2024/01/07 02:49:17;;;;;;;3.60;2.00;;;;;;;18.23;42.45;102167.25;5024110;28;20056;-68
2024/01/07 02:51:45;;;;;;;3.20;1.98;;;;;;;18.22;42.45;102176.97;5041746;28;20044;-69
2024/01/07 02:54:10;;;;;;;3.28;1.80;;;;;;;18.15;42.51;102172.38;5037357;28;20049;-69
2024/01/07 02:56:36;;;;;;;3.00;1.90;;;;;;;18.18;42.68;102182.66;5029579;28;20037;-67
2024/01/07 02:59:01;;;;;;;2.95;1.70;;;;;;;18.22;42.54;102189.31;5040337;28;20036;-68
2024/01/07 03:01:27;;;;;;;3.42;2.15;;;;;;;18.22;42.67;102187.50;5042009;28;20040;-68
2024/01/07 03:03:52;;;;;;;3.03;2.33;;;;;;;18.20;42.69;102189.44;5039481;28;20036;-68
2024/01/07 03:06:18;;;;;;;3.92;1.95;;;;;;;18.21;42.45;102192.91;5027213;28;20473;-69
2024/01/07 03:08:43;;;;;;;2.15;1.65;;;;;;;17.98;42.71;102166.78;5041741;28;20056;-68
2024/01/07 03:11:09;;;;;;;2.08;1.75;;;;;;;18.20;42.66;102199.16;5045832;28;20339;-67
2024/01/07 03:13:34;;;;;;;2.30;1.80;;;;;;;18.11;42.36;102187.63;5044618;28;20052;-68
2024/01/07 03:16:00;;;;;;;2.75;1.90;;;;;;;18.20;42.54;102207.06;5043518;28;20497;-68
2024/01/07 03:18:27;;;;;;;3.20;2.10;;;;;;;18.13;42.45;102198.84;5039720;28;20040;-68
2024/01/07 03:20:52;;;;;;;2.60;2.13;;;;;;;18.19;42.51;102206.25;5041621;28;20043;-68
2024/01/07 03:23:18;;;;;;;2.65;1.73;;;;;;;18.13;42.39;102204.13;5021439;28;20041;-68
2024/01/07 03:25:44;;;;;;;3.47;1.80;;;;;;;18.12;42.56;102205.94;5022342;28;20378;-68
2024/01/07 03:28:09;;;;;;;3.20;1.92;;;;;;;18.17;42.50;102226.63;5033903;28;20067;-68
2024/01/07 03:30:35;;;;;;;2.10;1.88;;;;;;;18.06;42.51;102214.38;5040377;28;20036;-68
2024/01/07 03:33:00;;;;;;;3.33;2.10;;;;;;;18.14;42.62;102228.72;5039301;28;20451;-68
2024/01/07 03:35:27;;;;;;;3.10;1.75;;;;;;;18.11;42.46;102224.53;5042657;28;20067;-68
2024/01/07 03:37:53;;;;;;;2.60;2.00;;;;;;;18.12;42.60;102229.66;5023030;28;20045;-68
2024/01/07 03:40:18;;;;;;;2.25;1.65;;;;;;;18.10;42.42;102236.88;5044886;28;20048;-68
2024/01/07 03:42:44;;;;;;;2.08;1.88;;;;;;;18.10;42.65;102234.22;5042381;28;20497;-68
2024/01/07 03:45:09;;;;;;;2.85;2.00;;;;;;;18.03;42.34;102225.19;5046221;28;20041;-67
2024/01/07 03:47:35;;;;;;;2.30;1.88;;;;;;;17.99;42.28;102223.81;5040634;28;20115;-68
2024/01/07 03:50:00;;;;;;;2.47;2.10;;;;;;;18.12;42.37;102244.63;5029826;28;20040;-68
2024/01/07 03:52:26;;;;;;;2.28;1.85;;;;;;;18.04;42.57;102237.41;5039070;28;20130;-69
2024/01/07 03:54:51;;;;;;;3.40;1.98;;;;;;;18.08;42.45;102249.34;5050272;28;20036;-68
2024/01/07 03:57:17;;;;;;;3.58;2.22;;;;;;;18.02;42.43;102247.25;5048435;28;20553;-68
2024/01/07 03:59:42;;;;;;;2.42;2.00;;;;;;;18.03;42.50;102254.19;5040825;28;20037;-68
2024/01/07 04:02:09;;;;;;;2.63;1.73;;;;;;;18.03;42.57;102259.47;5040113;28;20101;-68
2024/01/07 04:04:35;;;;;;;2.80;1.83;;;;;;;18.03;42.40;102259.47;5040461;28;20397;-68
2024/01/07 04:07:01;;;;;;;2.17;1.75;;;;;;;18.05;42.71;102265.44;5022311;28;20037;-69
2024/01/07 04:09:26;;;;;;;3.67;2.15;;;;;;;18.02;42.49;102263.06;5037648;28;20126;-69
2024/01/07 04:11:52;;;;;;;1.60;1.50;;;;;;;17.95;42.66;102256.66;5040544;28;20040;-69
2024/01/07 04:14:17;;;;;;;2.13;1.60;;;;;;;17.97;42.58;102261.81;5039988;28;20798;-69
2024/01/07 04:16:43;;;;;;;2.05;1.85;;;;;;;17.93;42.71;102261.22;5038638;28;20029;-69
2024/01/07 04:19:08;;;;;;;2.05;1.80;;;;;;;17.99;42.42;102273.88;5039184;28;21252;-68
2024/01/07 04:21:35;;;;;;;3.20;1.63;;;;;;;18.04;42.51;102269.03;5042901;28;20457;-68
2024/01/07 04:24:01;;;;;;;3.47;1.90;;;;;;;18.18;42.02;102281.03;5036213;28;20044;-69
2024/01/07 04:26:26;;;;;;;2.20;1.70;;;;;;;18.18;42.03;102275.75;5041042;28;20140;-69
2024/01/07 04:28:52;;;;;;;2.22;1.67;;;;;;;18.17;42.42;102281.16;5046926;28;20469;-69
2024/01/07 04:31:18;;;;;;;2.40;1.75;;;;;;;18.03;42.36;102274.44;5039098;28;20056;-68
2024/01/07 04:33:43;;;;;;;3.38;2.00;;;;;;;18.10;42.37;102288.75;5041605;28;20036;-69
2024/01/07 04:36:09;;;;;;;1.77;1.58;;;;;;;18.06;42.32;102287.34;5045619;28;20037;-70
2024/01/07 04:38:35;;;;;;;2.63;2.03;;;;;;;17.96;42.58;102287.34;5047693;28;20043;-69
2024/01/07 04:41:00;;;;;;;2.53;1.58;;;;;;;18.01;42.62;102303.59;5035851;28;20034;-69
2024/01/07 04:43:26;;;;;;;2.20;1.70;;;;;;;17.90;42.70;102289.66;5046027;28;20110;-69
2024/01/07 04:45:51;;;;;;;3.33;2.08;;;;;;;17.91;42.59;102302.69;5007578;28;20052;-69
2024/01/07 04:48:17;;;;;;;2.42;1.60;;;;;;;17.94;42.84;102310.31;5043457;28;20037;-68
2024/01/07 04:50:42;;;;;;;1.92;1.70;;;;;;;17.68;42.75;102269.56;5025265;28;20524;-69
2024/01/07 04:53:08;;;;;;;3.25;1.73;;;;;;;17.90;42.69;102311.56;5040129;28;20044;-69
2024/01/07 04:55:34;;;;;;;1.95;1.75;;;;;;;17.92;42.67;102317.53;5042471;28;20172;-70
2024/01/07 04:58:00;;;;;;;2.35;1.80;;;;;;;17.90;42.90;102322.09;5042500;28;20060;-69
2024/01/07 05:00:25;;;;;;;2.03;1.38;;;;;;;17.85;42.57;102324.31;5040193;28;20028;-70
2024/01/07 05:02:51;;;;;;;2.38;1.70;;;;;;;18.09;42.26;102332.75;5026624;28;20052;-69
2024/01/07 05:05:16;;;;;;;1.73;1.55;;;;;;;18.23;42.02;102330.72;5043881;28;20048;-70
2024/01/07 05:07:42;;;;;;;2.08;1.55;;;;;;;18.22;41.92;102343.06;5042865;28;20909;-69
2024/01/07 05:10:07;;;;;;;2.88;1.73;;;;;;;18.16;41.86;102332.22;5043139;28;20051;-70
2024/01/07 05:12:33;;;;;;;1.55;1.45;;;;;;;18.19;41.96;102345.16;5047690;28;20110;-68
2024/01/07 05:14:58;;;;;;;1.98;1.60;;;;;;;18.07;42.06;102337.31;5047073;28;20516;-70
2024/01/07 05:17:24;;;;;;;1.98;1.52;;;;;;;18.11;42.16;102353.69;5042775;28;20044;-69
2024/01/07 05:19:50;;;;;;;2.03;1.58;;;;;;;18.07;42.43;102360.22;5040051;28;20107;-69
2024/01/07 05:22:15;;;;;;;3.17;1.65;;;;;;;18.03;42.27;102362.28;5030365;28;20045;-69
2024/01/07 05:24:41;;;;;;;1.52;1.42;;;;;;;17.98;42.54;102361.00;5044437;28;20060;-69
2024/01/07 05:27:06;;;;;;;2.60;1.70;;;;;;;17.94;42.42;102368.31;5032813;28;20083;-69
2024/01/07 05:29:35;;;;;;;2.95;1.70;;;;;;;17.92;42.50;102372.03;5042013;28;20155;-69
2024/01/07 05:32:02;;;;;;;2.05;1.75;;;;;;;17.79;42.60;102362.56;5028488;28;20231;-69
2024/01/07 05:34:28;;;;;;;1.67;1.58;;;;;;;17.89;42.51;102382.84;5010664;28;20189;-69
2024/01/07 05:36:54;;;;;;;1.50;1.40;;;;;;;17.91;42.62;102394.09;5027015;28;20049;-69
2024/01/07 05:39:19;;;;;;;2.15;1.67;;;;;;;17.89;42.60;102388.13;5044784;28;20570;-69
2024/01/07 05:41:45;;;;;;;1.60;1.50;;;;;;;18.00;42.29;102390.69;5042628;28;20048;-69
2024/01/07 05:44:12;;;;;;;2.58;1.75;;;;;;;17.88;42.01;102353.03;5039590;28;20563;-69
2024/01/07 05:46:40;;;;;;;2.15;1.80;;;;;;;18.20;41.75;102402.19;5044204;28;20098;-69
2024/01/07 05:49:06;;;;;;;1.33;1.17;;;;;;;18.05;42.04;102389.34;5039878;28;20469;-69
2024/01/07 05:51:32;;;;;;;2.22;1.52;;;;;;;18.18;41.92;102412.03;5040579;28;20053;-69
2024/01/07 05:53:57;;;;;;;1.67;1.55;;;;;;;18.09;41.83;102414.47;5043823;28;20064;-69
2024/01/07 05:56:23;;;;;;;1.67;1.20;;;;;;;18.11;41.84;102427.50;5042276;28;20110;-69
2024/01/07 05:58:49;;;;;;;1.98;1.50;;;;;;;17.97;42.06;102404.16;5041739;28;20059;-69
2024/01/07 06:01:19;;;;;;;1.38;1.27;;;;;;;17.96;42.42;102421.75;5040835;28;20078;-69
2024/01/07 06:03:46;;;;;;;1.98;1.60;;;;;;;17.98;42.32;102440.91;5043714;28;20041;-69
2024/01/07 06:06:12;;;;;;;2.38;1.55;;;;;;;17.89;42.33;102430.28;5035623;28;20049;-68
2024/01/07 06:08:38;;;;;;;1.92;1.52;;;;;;;17.93;42.49;102447.50;5032131;28;20089;-69
2024/01/07 06:11:03;;;;;;;1.42;1.10;;;;;;;17.91;42.54;102452.06;5039247;28;20538;-69
2024/01/07 06:13:29;;;;;;;2.00;1.38;;;;;;;17.89;42.20;102454.84;5040451;28;20120;-69
2024/01/07 06:15:54;;;;;;;2.03;1.40;;;;;;;17.91;42.53;102462.63;5025330;28;20646;-69
2024/01/07 06:18:20;;;;;;;1.65;1.55;;;;;;;17.71;42.22;102440.56;5043326;28;20055;-69
2024/01/07 06:20:45;;;;;;;2.15;1.50;;;;;;;17.89;42.47;102472.44;5044443;28;20029;-68
2024/01/07 06:23:11;;;;;;;2.20;1.48;;;;;;;17.83;42.27;102465.91;5041659;28;20037;-68
2024/01/07 06:29:40;;;;;;;1.50;1.40;;;;;;;17.85;42.41;102482.41;5026655;28;20044;-67
2024/01/07 06:32:06;;;;;;;2.25;1.42;;;;;;;17.87;42.32;102493.66;5037990;28;20485;-69
2024/01/07 06:34:33;;;;;;;1.17;1.08;;;;;;;17.90;42.37;102485.50;5029527;28;20051;-68
2024/01/07 06:36:59;;;;;;;2.65;1.48;;;;;;;18.08;41.85;102496.31;5041097;28;20049;-69
2024/01/07 06:39:26;;;;;;;1.42;1.30;;;;;;;18.20;41.53;102495.31;5034515;28;20135;-69
2024/01/07 06:41:52;;;;;;;2.55;1.50;;;;;;;18.28;41.74;102492.00;5040376;28;20382;-69
2024/01/07 06:44:18;;;;;;;1.85;1.40;;;;;;;18.33;41.20;102508.31;5043640;28;20170;-70
2024/01/07 06:46:43;;;;;;;1.02;0.98;;;;;;;18.27;41.43;102501.72;5041196;28;20028;-69
2024/01/07 06:49:09;;;;;;;1.67;1.45;;;;;;;18.25;41.49;102516.00;5039320;28;20053;-68
2024/01/07 06:51:35;;;;;;;2.35;1.30;;;;;;;18.14;41.51;102498.47;5034222;28;20095;-69
2024/01/07 06:54:00;;;;;;;1.23;1.13;;;;;;;18.18;41.49;102514.84;5018535;28;20029;-68
2024/01/07 06:56:26;;;;;;;4.03;1.58;;;;;;;18.53;40.36;102511.91;5039376;28;20063;-69
2024/01/07 06:58:51;;;;;;;2.72;1.35;;;;;;;18.30;41.21;102524.34;5007435;28;20044;-69
2024/01/07 07:01:23;;;;;;;1.40;1.20;;;;;;;18.08;41.37;102517.41;5008048;28;20048;-69
2024/01/07 07:03:49;;;;;;;1.70;1.60;;;;;;;18.00;41.65;102515.41;5034068;28;20064;-69
2024/01/07 07:06:16;;;;;;;2.08;1.50;;;;;;;18.00;41.84;102527.75;5043814;28;20139;-69
2024/01/07 07:08:41;;;;;;;1.42;1.17;;;;;;;17.91;41.96;102528.50;5044153;28;20139;-69
2024/01/07 07:11:07;;;;;;;1.38;1.27;;;;;;;17.90;42.11;102532.09;5056562;28;20032;-70
2024/01/07 07:13:32;;;;;;;1.27;1.15;;;;;;;18.02;41.72;102547.75;5043803;28;20538;-70
2024/01/07 07:15:59;;;;;;;1.42;1.25;;;;;;;18.39;41.09;102549.97;5044763;28;20065;-70
2024/01/07 07:18:24;;;;;;;1.55;1.40;;;;;;;18.55;40.99;102546.88;5046567;28;20040;-70
2024/01/07 07:20:50;;;;;;;2.38;1.40;;;;;;;18.37;41.81;102557.19;5047489;28;20037;-69
2024/01/07 07:23:15;;;;;;;1.30;1.20;;;;;;;18.51;41.63;102569.22;5042387;28;20028;-69
2024/01/07 07:25:41;;;;;;;1.35;1.05;;;;;;;18.59;41.61;102572.88;5028143;28;20489;-69
2024/01/07 07:28:06;;;;;;;1.90;1.40;;;;;;;18.62;41.52;102562.06;5044600;28;20350;-69
2024/01/07 07:30:32;;;;;;;1.80;1.10;;;;;;;18.72;41.22;102578.00;5049206;28;20048;-70
2024/01/07 07:32:57;;;;;;;1.23;1.02;;;;;;;18.68;41.24;102572.16;5025467;28;20040;-69
2024/01/07 07:35:23;;;;;;;1.45;1.35;;;;;;;18.96;40.84;102588.25;5044764;28;20369;-70
2024/01/07 07:37:48;;;;;;;3.88;1.38;;;;;;;19.07;40.44;102596.09;5045211;28;21024;-71
2024/01/07 07:40:14;;;;;;;1.40;1.30;;;;;;;19.02;40.48;102593.00;5038594;28;20034;-70
2024/01/07 07:42:39;;;;;;;2.20;1.17;;;;;;;19.12;40.25;102615.03;5022937;28;20372;-70
2024/01/07 07:45:06;;;;;;;1.30;1.20;;;;;;;19.04;40.16;102612.22;5040472;28;20488;-71
2024/01/07 07:47:31;;;;;;;1.83;1.30;;;;;;;19.13;40.30;102615.84;5017410;28;20037;-71
2024/01/07 07:49:57;;;;;;;1.17;0.88;;;;;;;19.10;40.20;102621.41;5029238;28;20079;-70
2024/01/07 07:52:25;;;;;;;1.20;1.10;;;;;;;19.00;40.49;102608.97;5039311;28;20457;-70
2024/01/07 07:54:52;;;;;;;2.75;1.45;;;;;;;19.10;40.38;102635.44;5041212;28;20055;-70
2024/01/07 07:57:19;;;;;;;1.42;1.27;;;;;;;19.10;40.21;102637.25;5042207;28;20040;-70
2024/01/07 07:59:45;;;;;;;1.17;1.08;;;;;;;19.06;40.21;102649.88;5043074;28;20650;-70
2024/01/07 08:02:10;;;;;;;1.45;1.13;;;;;;;19.01;40.21;102649.41;5042832;28;20045;-70
2024/01/07 08:04:36;;;;;;;2.17;1.45;;;;;;;18.84;40.13;102642.09;5032188;28;20051;-70
2024/01/07 08:07:02;;;;;;;1.60;1.17;;;;;;;18.88;40.35;102656.72;5040640;28;20049;-69
2024/01/07 08:09:28;;;;;;;2.00;1.48;;;;;;;18.82;40.54;102658.06;5050401;28;20358;-70
2024/01/07 08:11:53;;;;;;;1.48;1.20;;;;;;;18.82;40.68;102662.50;5047306;28;20037;-70
2024/01/07 08:14:19;;;;;;;2.05;1.25;;;;;;;18.71;40.82;102661.59;5045086;28;20048;-70
2024/01/07 08:16:44;;;;;;;1.35;1.23;;;;;;;18.68;40.76;102659.22;5031407;28;20533;-70
2024/01/07 08:19:10;;;;;;;1.02;0.93;;;;;;;18.67;40.82;102670.75;5022644;28;20052;-70
2024/01/07 08:21:35;;;;;;;1.33;1.20;;;;;;;18.58;40.83;102668.00;5045793;28;20041;-70
2024/01/07 08:24:01;;;;;;;1.25;0.98;;;;;;;18.68;40.58;102676.88;5030892;28;20044;-70
2024/01/07 08:26:26;;;;;;;1.42;1.20;;;;;;;18.84;40.48;102687.78;5039054;28;20033;-70
2024/01/07 08:28:52;;;;;;;1.83;1.20;;;;;;;18.95;40.18;102679.00;5045981;28;20033;-70
2024/01/07 08:31:17;;;;;;;1.02;0.93;;;;;;;19.05;40.06;102690.47;5044016;28;20886;-70
2024/01/07 08:33:43;;;;;;;2.22;1.33;;;;;;;18.93;40.18;102679.13;5044509;28;20643;-70
2024/01/07 08:36:08;;;;;;;1.13;0.90;;;;;;;19.08;40.05;102700.75;5021727;28;20094;-70
2024/01/07 08:38:35;;;;;;;1.40;1.08;;;;;;;19.05;40.01;102697.53;5034508;28;20048;-70
2024/01/07 08:41:00;;;;;;;1.20;1.10;;;;;;;19.08;40.05;102698.13;5040857;28;20526;-70
2024/01/07 08:43:26;;;;;;;1.42;1.00;;;;;;;19.08;40.07;102700.75;5038802;28;20115;-70
2024/01/07 08:45:51;;;;;;;1.77;1.30;;;;;;;19.06;40.11;102699.22;5041127;28;20041;-70
2024/01/07 08:48:17;;;;;;;1.55;1.45;;;;;;;19.06;39.98;102704.50;5038494;28;20115;-70
2024/01/07 08:50:43;;;;;;;1.80;1.38;;;;;;;18.98;40.29;102697.19;5042244;28;20049;-70
2024/01/07 08:53:08;;;;;;;1.23;1.05;;;;;;;18.92;40.07;102706.50;5044358;28;20037;-70
2024/01/07 08:55:34;;;;;;;1.63;1.05;;;;;;;18.93;40.32;102702.03;5040934;28;20044;-70
2024/01/07 08:58:00;;;;;;;1.25;1.15;;;;;;;18.89;40.32;102709.38;5031453;28;20041;-70
2024/01/07 09:00:26;;;;;;;1.27;1.00;;;;;;;18.75;40.23;102693.84;5038330;28;20044;-70
2024/01/07 09:02:52;;;;;;;1.40;1.08;;;;;;;18.69;40.60;102707.56;5044436;28;20039;-70
2024/01/07 09:05:18;;;;;;;1.60;1.10;;;;;;;18.82;40.58;102724.03;5035924;28;20392;-70
2024/01/07 09:07:43;;;;;;;2.00;1.52;;;;;;;18.87;40.20;102727.16;5041716;28;20804;-69
2024/01/07 09:10:13;;;;;;;2.47;1.30;;;;;;;18.94;40.41;102725.66;5028497;28;20045;-70
2024/01/07 09:12:39;;;;;;;1.50;1.15;;;;;;;19.05;39.92;102732.72;5039749;28;20045;-70
2024/01/07 09:15:08;;;;;;;1.10;1.00;;;;;;;19.02;40.06;102728.50;5034313;28;20806;-70
2024/01/07 09:17:37;;;;;;;1.23;1.10;;;;;;;18.68;40.93;102733.13;5041600;28;20060;-70
2024/01/07 09:20:07;;;;;;;1.60;1.38;;;;;;;18.83;41.08;102732.78;5044277;28;20136;-70
2024/01/07 09:22:36;;;;;;;1.55;1.30;;;;;;;18.92;40.97;102742.59;5043856;28;20763;-70
2024/01/07 09:25:03;;;;;;;1.75;1.10;;;;;;;18.90;40.81;102733.97;5046837;28;20186;-72
2024/01/07 09:27:29;;;;;;;3.95;1.60;;;;;;;19.16;39.68;102751.13;5044566;28;20598;-71
2024/01/07 09:29:55;;;;;;;3.60;2.40;;;;;;;19.29;33.49;102737.72;5040776;28;20060;-72
2024/01/07 09:32:21;;;;;;;4.55;2.72;;;;;;;19.25;32.91;102747.72;5044293;28;20060;-70
2024/01/07 09:34:46;;;;;;;3.88;2.63;;;;;;;19.14;34.60;102754.84;5032756;28;20037;-69
2024/01/07 09:37:12;;;;;;;2.70;2.40;;;;;;;19.14;36.75;102762.78;5024370;28;20048;-69
2024/01/07 09:39:41;;;;;;;13.98;3.20;;;;;;;19.15;37.60;102757.38;5048047;28;20029;-69
2024/01/07 09:42:14;;;;;;;3.23;2.03;;;;;;;19.14;38.27;102763.59;5032618;28;20508;-69
2024/01/07 09:44:43;;;;;;;2.45;2.15;;;;;;;19.17;38.30;102765.16;5043764;28;20486;-70
2024/01/07 09:47:13;;;;;;;4.30;2.53;;;;;;;18.99;38.54;102759.59;5042884;28;20361;-69
2024/01/07 09:49:40;;;;;;;8.80;3.30;;;;;;;18.91;39.03;102768.16;5049634;28;20050;-72
2024/01/07 09:52:10;;;;;;;3.30;2.10;;;;;;;18.95;38.88;102760.81;5026854;28;20055;-72
2024/01/07 09:54:40;;;;;;;4.60;2.13;;;;;;;19.01;38.99;102773.50;5044544;28;20037;-72
2024/01/07 09:57:07;;;;;;;3.17;2.10;;;;;;;18.78;39.08;102733.19;5030931;28;20044;-74
2024/01/07 09:59:34;;;;;;;2.17;1.98;;;;;;;19.01;38.98;102776.16;5041014;28;20028;-75
2024/01/07 10:02:00;;;;;;;2.58;2.33;;;;;;;18.98;39.16;102771.97;5044325;28;20072;-74
2024/01/07 10:04:27;;;;;;;2.83;1.88;;;;;;;18.93;39.12;102774.16;5046071;28;20766;-74
2024/01/07 10:06:54;;;;;;;2.85;2.00;;;;;;;18.93;39.27;102775.97;5043293;28;20049;-74
2024/01/07 10:09:23;;;;;;;2.90;1.90;;;;;;;18.84;39.27;102761.69;5035874;28;20049;-74
2024/01/07 10:11:49;;;;;;;2.17;1.80;;;;;;;18.87;39.40;102773.84;5042239;28;20056;-74
2024/01/07 10:14:15;;;;;;;4.53;2.10;;;;;;;18.84;39.63;102781.97;5039332;28;20048;-74
2024/01/07 10:16:41;;;;;;;3.40;1.65;;;;;;;18.79;39.45;102782.38;5036581;28;20056;-75
2024/01/07 10:19:07;;;;;;;1.80;1.70;;;;;;;18.81;39.48;102790.16;5024869;28;20032;-74
2024/01/07 10:21:33;;;;;;;4.10;1.77;;;;;;;18.75;39.75;102788.03;5042000;28;20041;-73
2024/01/07 10:24:10;;;;;;;2.63;2.03;;;;;;;18.73;39.77;102782.88;5021713;28;20560;-73
2024/01/07 10:26:37;;;;;;;2.10;1.90;;;;;;;18.71;39.64;102779.53;5036390;28;20037;-73
2024/01/07 10:29:02;;;;;;;3.03;1.90;;;;;;;18.88;39.41;102792.19;5038502;28;20047;-73
2024/01/07 10:31:29;;;;;;;2.35;1.80;;;;;;;18.92;39.49;102782.22;5021087;28;20037;-74
2024/01/07 10:33:56;;;;;;;2.83;1.90;;;;;;;18.54;40.25;102780.03;5037812;28;20773;-74
2024/01/07 10:36:24;;;;;;;1.60;1.48;;;;;;;18.58;40.69;102798.13;5046331;28;20048;-74
2024/01/07 10:38:50;;;;;;;1.90;1.60;;;;;;;18.63;40.42;102777.50;5044594;28;20044;-74
2024/01/07 10:41:18;;;;;;;2.08;1.58;;;;;;;18.58;40.51;102782.28;5043046;28;20028;-74
2024/01/07 10:43:46;;;;;;;1.95;1.70;;;;;;;18.75;40.34;102786.22;5038977;28;20055;-74
2024/01/07 10:46:14;;;;;;;3.97;1.63;;;;;;;19.00;39.94;102792.97;5042077;28;20033;-74
2024/01/07 10:48:51;;;;;;;1.77;1.60;;;;;;;19.16;39.58;102781.97;5024899;28;20497;-73
2024/01/07 10:51:19;;;;;;;1.58;1.48;;;;;;;19.26;39.31;102791.66;5039538;28;20574;-74
2024/01/07 10:53:51;;;;;;;1.98;1.70;;;;;;;19.21;39.31;102779.78;5022723;28;20488;-73
2024/01/07 10:56:22;;;;;;;2.15;1.40;;;;;;;19.28;39.04;102791.50;5034504;28;20049;-73
2024/01/07 10:58:48;;;;;;;2.00;1.65;;;;;;;19.32;39.21;102799.03;5032336;28;20829;-74
2024/01/07 11:01:14;;;;;;;2.03;1.42;;;;;;;19.29;39.35;102796.66;5008338;28;20034;-74
2024/01/07 11:03:51;;;;;;;1.35;1.25;;;;;;;19.26;39.12;102789.00;5015316;28;20045;-73
2024/01/07 11:06:17;;;;;;;2.45;1.50;;;;;;;19.35;39.14;102800.59;5030655;28;20049;-74
2024/01/07 11:09:00;;;;;;;1.50;1.40;;;;;;;19.22;39.08;102779.66;5039309;28;20075;-74
2024/01/07 11:11:30;;;;;;;1.88;1.65;;;;;;;19.33;39.18;102813.09;5045452;28;20065;-74
2024/01/07 11:13:56;;;;;;;1.73;1.50;;;;;;;19.31;39.23;102815.88;5046388;28;20045;-74
2024/01/07 11:16:48;;;;;;;1.70;1.60;;;;;;;19.27;39.20;102817.09;5043935;28;20094;-74
2024/01/07 11:19:14;;;;;;;2.15;1.85;;;;;;;19.27;39.33;102818.91;5040854;28;20139;-74
2024/01/07 11:21:40;;;;;;;2.05;1.75;;;;;;;19.21;39.39;102812.34;5048065;28;20067;-74
2024/01/07 11:24:05;;;;;;;2.13;1.85;;;;;;;19.25;39.34;102820.84;5007971;28;20084;-73